»·PEaware :: WAT234 KLAS-KSAN

WAT234 :: KLAS-KSAN

FLIGHT INFORMATION

Flight Status: Arrived
Operator:
Walker Air Transport
More flights by this operator :: More flights under this callsign
Pilot: Eduardo Elias G. (24838)
Aircraft: BOEING 737-800
(B738)
More flights by this aircraft type
Origin: KLAS McCarran Intl
United States
Destination: KSAN San Diego Intl-Lindbergh
United States
More flights between these airports :: More routes between these airports
Route: +BOACH8 LVELL LUCKI1
File this flight plan on PilotEdge
Remarks:
Altitude:
(Current/Filed)
34,000ft
Speed:
(Current/Filed)
450kts
Departed: 01-Jun-20 10:17 PM
Arrived: 01-Jun-20 11:04 PM
Distance/Time
Traveled:
225nm/0:46
Distance/Time
To Go:
Arrived

Flight Plot

Page will automatically refresh every two minutes.

Flight plan parsing failed; only flown route is shown


Map Options




Map Legend


Flown Route
Filed Route
Departure Airport
Arrival Airport
Navaid (VOR, NDB)
Fix

Horizontal Profiles

Position Reports

Time Latitude Longitude Heading Altitude Ground
Speed
01-Jun-20 21:20 36.080676 -115.147545 66 2123ft 0kts
01-Jun-20 21:21 36.080676 -115.147545 66 2123ft 0kts
01-Jun-20 21:22 36.080676 -115.147545 66 2123ft 0kts
01-Jun-20 21:23 36.080676 -115.147545 66 2123ft 0kts
01-Jun-20 21:24 36.080676 -115.147545 66 2123ft 0kts
01-Jun-20 21:25 36.080676 -115.147545 66 2123ft 0kts
01-Jun-20 21:26 36.080676 -115.147545 66 2123ft 0kts
01-Jun-20 21:27 36.080676 -115.147545 66 2123ft 0kts
01-Jun-20 21:28 36.080676 -115.147545 66 2123ft 0kts
01-Jun-20 21:29 36.080676 -115.147545 66 2123ft 0kts
01-Jun-20 21:30 36.080676 -115.147545 66 2123ft 0kts
01-Jun-20 21:31 36.080676 -115.147545 66 2123ft 0kts
01-Jun-20 21:32 36.080676 -115.147545 66 2123ft 0kts
01-Jun-20 21:33 36.080676 -115.147545 66 2123ft 0kts
01-Jun-20 21:34 36.080676 -115.147545 66 2123ft 0kts
01-Jun-20 21:35 36.080676 -115.147545 66 2123ft 0kts
01-Jun-20 21:36 36.080676 -115.147545 66 2123ft 0kts
01-Jun-20 21:37 36.080676 -115.147545 66 2123ft 0kts
01-Jun-20 21:38 36.080676 -115.147545 66 2123ft 0kts
01-Jun-20 21:39 36.080676 -115.147545 66 2123ft 0kts
01-Jun-20 21:40 36.080676 -115.147545 66 2123ft 0kts
01-Jun-20 21:41 36.080676 -115.147545 66 2123ft 0kts
01-Jun-20 21:42 36.080676 -115.147545 66 2123ft 0kts
01-Jun-20 21:43 36.080676 -115.147545 66 2123ft 0kts
01-Jun-20 21:44 36.080676 -115.147545 66 2123ft 0kts
01-Jun-20 21:46 36.080676 -115.147545 66 2123ft 0kts
01-Jun-20 21:47 36.080676 -115.147545 66 2123ft 0kts
01-Jun-20 21:48 36.080676 -115.147545 66 2123ft 0kts
01-Jun-20 21:49 36.080676 -115.147545 66 2123ft 0kts
01-Jun-20 21:50 36.080676 -115.147545 66 2123ft 0kts
01-Jun-20 21:51 36.080676 -115.147545 66 2123ft 0kts
01-Jun-20 21:52 36.080676 -115.147545 66 2123ft 0kts
01-Jun-20 21:53 36.080676 -115.147545 66 2123ft 0kts
01-Jun-20 21:54 36.080676 -115.147545 66 2123ft 0kts
01-Jun-20 21:55 36.080676 -115.147545 66 2123ft 0kts
01-Jun-20 21:56 36.080676 -115.147545 66 2123ft 0kts
01-Jun-20 21:57 36.080676 -115.147545 66 2123ft 0kts
01-Jun-20 21:58 36.080676 -115.147545 66 2123ft 0kts
01-Jun-20 21:59 36.080578 -115.147859 73 2123ft 2kts
01-Jun-20 22:00 36.080707 -115.148654 157 2123ft 2kts
01-Jun-20 22:01 36.080773 -115.148689 157 2123ft 0kts
01-Jun-20 22:02 36.080773 -115.148689 157 2123ft 0kts
01-Jun-20 22:03 36.080773 -115.148689 157 2123ft 0kts
01-Jun-20 22:04 36.080773 -115.148689 157 2123ft 0kts
01-Jun-20 22:05 36.080773 -115.148689 157 2123ft 0kts
01-Jun-20 22:05 36.080773 -115.148689 157 2123ft 0kts
01-Jun-20 22:07 36.080772 -115.148688 157 2123ft 0kts
01-Jun-20 22:07 36.080771 -115.148687 157 2123ft 0kts
01-Jun-20 22:08 36.080412 -115.148501 157 2123ft 4kts
01-Jun-20 22:09 36.079451 -115.148013 157 2123ft 6kts
01-Jun-20 22:10 36.078390 -115.145677 93 2123ft 13kts
01-Jun-20 22:11 36.078260 -115.141643 90 2123ft 16kts
01-Jun-20 22:12 36.078247 -115.135042 91 2123ft 16kts
01-Jun-20 22:13 36.078215 -115.130079 90 2123ft 18kts
01-Jun-20 22:14 36.078220 -115.123647 96 2123ft 10kts
01-Jun-20 22:15 36.076408 -115.121569 250 2123ft 7kts
01-Jun-20 22:16 36.076577 -115.152907 270 2471ft 174kts
01-Jun-20 22:17 36.077525 -115.217178 264 4785ft 212kts
01-Jun-20 22:18 36.038969 -115.274570 188 6315ft 261kts
01-Jun-20 22:19 35.968281 -115.300801 192 8952ft 267kts
01-Jun-20 22:20 35.894337 -115.310809 185 11783ft 277kts
01-Jun-20 22:21 35.809382 -115.310087 175 13681ft 320kts
01-Jun-20 22:22 35.717221 -115.299132 176 15756ft 353kts
01-Jun-20 22:23 35.615040 -115.296926 184 17447ft 384kts
01-Jun-20 22:24 35.506544 -115.301476 183 19554ft 395kts
01-Jun-20 22:25 35.394728 -115.305890 183 21217ft 410kts
01-Jun-20 22:26 35.278942 -115.310448 183 22580ft 424kts
01-Jun-20 22:27 35.159967 -115.315122 183 23954ft 431kts
01-Jun-20 22:28 35.043463 -115.319720 183 26309ft 415kts
01-Jun-20 22:29 34.929563 -115.324170 183 28302ft 407kts
01-Jun-20 22:30 34.815519 -115.329007 186 29811ft 408kts
01-Jun-20 22:31 34.705381 -115.364039 199 31139ft 409kts
01-Jun-20 22:32 34.598651 -115.410789 200 32545ft 407kts
01-Jun-20 22:33 34.492050 -115.457339 200 33737ft 409kts
01-Jun-20 22:34 34.382574 -115.504906 200 33875ft 426kts
01-Jun-20 22:35 34.274917 -115.566822 211 33875ft 430kts
01-Jun-20 22:36 34.174691 -115.631971 201 33526ft 392kts
01-Jun-20 22:37 34.071858 -115.680350 201 31050ft 394kts
01-Jun-20 22:38 33.971727 -115.727437 201 29261ft 380kts
01-Jun-20 22:39 33.875037 -115.773837 202 27701ft 365kts
01-Jun-20 22:40 33.782276 -115.819300 202 26024ft 356kts
01-Jun-20 22:41 33.691165 -115.862345 201 24376ft 347kts
01-Jun-20 22:42 33.602781 -115.903576 201 24025ft 344kts
01-Jun-20 22:43 33.516051 -115.952186 220 24022ft 348kts
01-Jun-20 22:44 33.457600 -116.043975 231 22514ft 344kts
01-Jun-20 22:45 33.403434 -116.136991 231 20953ft 337kts
01-Jun-20 22:46 33.350077 -116.227976 227 19411ft 329kts
01-Jun-20 22:47 33.276594 -116.285981 205 17960ft 317kts
01-Jun-20 22:48 33.197886 -116.332012 205 16482ft 312kts
01-Jun-20 22:49 33.120405 -116.377227 205 15056ft 306kts
01-Jun-20 22:50 33.044454 -116.421496 205 13669ft 301kts
01-Jun-20 22:51 32.974485 -116.474819 218 12304ft 298kts
01-Jun-20 22:52 32.911476 -116.539195 217 10722ft 303kts
01-Jun-20 22:53 32.849217 -116.601842 216 9465ft 288kts
01-Jun-20 22:54 32.787172 -116.664345 220 7973ft 292kts
01-Jun-20 22:55 32.745065 -116.737283 243 7154ft 286kts
01-Jun-20 22:56 32.707339 -116.819399 246 5952ft 280kts
01-Jun-20 22:57 32.682438 -116.899979 253 5606ft 240kts
01-Jun-20 22:58 32.681034 -116.973684 292 4136ft 227kts
01-Jun-20 22:59 32.697922 -117.041813 287 2801ft 193kts
01-Jun-20 23:00 32.710421 -117.093992 284 1793ft 137kts
01-Jun-20 23:01 32.720904 -117.137244 285 946ft 132kts
01-Jun-20 23:02 32.731157 -117.179783 287 89ft 133kts
01-Jun-20 23:03 32.735032 -117.198605 249 23ft 3kts
01-Jun-20 23:04 32.734911 -117.198979 246 23ft 7kts
01-Jun-20 23:05 32.733795 -117.199073 148 23ft 0kts
01-Jun-20 23:06 32.733714 -117.199014 148 23ft 0kts
01-Jun-20 23:07 32.733714 -117.199014 148 23ft 0kts
01-Jun-20 23:08 32.733714 -117.199014 148 23ft 0kts
01-Jun-20 23:09 32.733714 -117.199014 148 23ft 0kts
01-Jun-20 23:10 32.733714 -117.199014 148 23ft 0kts
01-Jun-20 23:11 32.733714 -117.199014 148 23ft 0kts
01-Jun-20 23:12 32.733714 -117.199014 148 23ft 0kts
01-Jun-20 23:13 32.733714 -117.199014 148 23ft 0kts

Navigation Log

Ident Type
Flight plan parsing failed, navigation log unavailable